Time;durP1;ratioP1;P1;durP2;ratioP2;P2;SDS_P1;SDS_P2;PMS_P1;PMS_P2;Temp;Humidity;BMP_temperature;BMP_pressure;BME280_temperature;BME280_humidity;BME280_pressure;Samples;Min_cycle;Max_cycle;Signal;HPM_P1;HPM_P2
2023/06/06 00:00:13;;;;;;;18.60;9.07;;;;;;;;;;4958923;28;20129;-88
2023/06/06 00:02:43;;;;;;;15.75;10.10;;;;;;;;;;4979060;28;20035;-87
2023/06/06 00:05:11;;;;;;;15.82;9.60;;;;;;;;;;4991408;28;20054;-88
2023/06/06 00:07:40;;;;;;;15.00;9.60;;;;;;;;;;4976559;28;20078;-86
2023/06/06 00:10:08;;;;;;;16.13;9.80;;;;;;;;;;4992415;28;20047;-87
2023/06/06 00:12:34;;;;;;;18.25;10.07;;;;;;;;;;4990067;28;20053;-87
2023/06/06 00:15:00;;;;;;;18.55;10.20;;;;;;;;;;4987613;28;20505;-87
2023/06/06 00:17:29;;;;;;;15.55;10.75;;;;;;;;;;4988166;28;20049;-86
2023/06/06 00:19:56;;;;;;;16.25;9.90;;;;;;;;;;4962346;28;20099;-88
2023/06/06 00:22:23;;;;;;;16.92;9.88;;;;;;;;;;4978918;28;20136;-87
2023/06/06 00:24:49;;;;;;;15.38;9.90;;;;;;;;;;4985818;28;20042;-88
2023/06/06 00:27:16;;;;;;;17.75;10.23;;;;;;;;;;4987680;28;20042;-83
2023/06/06 00:29:42;;;;;;;16.88;10.32;;;;;;;;;;4952970;28;20412;-86
2023/06/06 00:32:08;;;;;;;18.75;10.77;;;;;;;;;;4986853;28;20134;-85
2023/06/06 00:34:34;;;;;;;16.23;9.68;;;;;;;;;;4987374;28;20046;-86
2023/06/06 00:37:03;;;;;;;14.85;9.57;;;;;;;;;;4954306;28;20049;-87
2023/06/06 00:39:29;;;;;;;14.30;9.23;;;;;;;;;;4970852;28;20050;-83
2023/06/06 00:41:55;;;;;;;14.65;9.38;;;;;;;;;;4987119;28;20047;-87
2023/06/06 00:44:21;;;;;;;15.02;9.50;;;;;;;;;;4975042;28;20062;-86
2023/06/06 00:46:48;;;;;;;13.93;9.70;;;;;;;;;;4969121;28;20106;-86
2023/06/06 00:49:15;;;;;;;15.80;9.82;;;;;;;;;;4986119;28;20094;-87
2023/06/06 00:51:43;;;;;;;16.02;9.73;;;;;;;;;;4967948;28;20066;-87
2023/06/06 00:54:15;;;;;;;14.90;9.55;;;;;;;;;;4981902;28;20053;-87
2023/06/06 00:56:43;;;;;;;13.98;9.05;;;;;;;;;;4988041;28;20050;-87
2023/06/06 00:59:10;;;;;;;16.08;9.15;;;;;;;;;;4988189;28;20051;-87
2023/06/06 01:01:36;;;;;;;15.52;9.60;;;;;;;;;;4973082;28;20453;-87
2023/06/06 01:04:10;;;;;;;18.73;9.68;;;;;;;;;;4989978;28;20086;-86
2023/06/06 01:06:37;;;;;;;16.52;9.43;;;;;;;;;;4988275;28;20099;-88
2023/06/06 01:09:04;;;;;;;17.33;9.60;;;;;;;;;;4988390;28;20464;-87
2023/06/06 01:11:40;;;;;;;16.80;9.63;;;;;;;;;;4988602;28;20081;-87
2023/06/06 01:14:16;;;;;;;14.80;8.93;;;;;;;;;;4988881;28;20129;-87
2023/06/06 01:16:43;;;;;;;17.30;10.13;;;;;;;;;;4990782;28;20058;-86
2023/06/06 01:19:12;;;;;;;14.88;9.85;;;;;;;;;;5002109;28;20111;-86
2023/06/06 01:21:41;;;;;;;16.23;10.07;;;;;;;;;;4985259;28;20093;-85
2023/06/06 01:24:07;;;;;;;14.80;10.43;;;;;;;;;;4968314;28;20053;-85
2023/06/06 01:26:33;;;;;;;19.48;10.77;;;;;;;;;;4971384;28;20054;-87
2023/06/06 01:28:59;;;;;;;18.95;9.65;;;;;;;;;;4952427;28;20047;-86
2023/06/06 01:31:28;;;;;;;17.40;10.15;;;;;;;;;;4986609;28;20042;-86
2023/06/06 01:33:56;;;;;;;15.32;9.82;;;;;;;;;;4990813;28;20050;-86
2023/06/06 01:36:35;;;;;;;18.52;9.82;;;;;;;;;;4956069;28;20550;-86
2023/06/06 01:39:03;;;;;;;15.88;9.68;;;;;;;;;;4966365;28;20035;-86
2023/06/06 01:41:30;;;;;;;17.88;9.98;;;;;;;;;;4956310;28;20051;-86
2023/06/06 01:43:57;;;;;;;18.40;10.40;;;;;;;;;;4970888;28;20053;-86
2023/06/06 01:46:25;;;;;;;17.75;10.38;;;;;;;;;;4987755;28;20051;-86
2023/06/06 01:48:51;;;;;;;15.25;10.45;;;;;;;;;;4987732;28;20038;-86
2023/06/06 01:51:17;;;;;;;16.73;10.23;;;;;;;;;;4955890;28;20054;-87
2023/06/06 01:53:43;;;;;;;16.90;10.40;;;;;;;;;;4987653;28;20054;-86
2023/06/06 01:56:13;;;;;;;14.05;10.02;;;;;;;;;;4955411;28;20053;-88
2023/06/06 01:58:40;;;;;;;14.48;9.57;;;;;;;;;;4971919;28;20093;-85
2023/06/06 02:01:06;;;;;;;16.45;10.88;;;;;;;;;;4986723;28;20125;-84
2023/06/06 02:03:33;;;;;;;16.75;10.07;;;;;;;;;;4959053;28;20117;-86
2023/06/06 02:06:01;;;;;;;15.88;10.45;;;;;;;;;;4989488;28;20081;-87
2023/06/06 02:08:27;;;;;;;15.30;9.90;;;;;;;;;;4988085;28;20055;-86
2023/06/06 02:10:55;;;;;;;13.88;10.38;;;;;;;;;;4987039;28;20338;-86
2023/06/06 02:13:21;;;;;;;17.10;10.55;;;;;;;;;;4988897;28;20047;-86
2023/06/06 02:15:47;;;;;;;19.70;10.45;;;;;;;;;;4988077;28;20429;-85
2023/06/06 02:18:13;;;;;;;16.33;10.90;;;;;;;;;;4994805;28;20137;-85
2023/06/06 02:20:39;;;;;;;17.05;10.38;;;;;;;;;;4992134;28;20061;-85
2023/06/06 02:23:05;;;;;;;16.80;10.57;;;;;;;;;;4992410;28;20482;-86
2023/06/06 02:25:33;;;;;;;17.35;11.05;;;;;;;;;;4985696;28;20047;-86
2023/06/06 02:27:59;;;;;;;16.88;10.48;;;;;;;;;;4985084;28;20046;-85
2023/06/06 02:30:25;;;;;;;18.52;11.05;;;;;;;;;;4985663;28;20134;-86
2023/06/06 02:32:51;;;;;;;16.52;11.50;;;;;;;;;;4991809;28;20053;-86
2023/06/06 02:35:21;;;;;;;21.92;13.63;;;;;;;;;;4991656;28;20043;-87
2023/06/06 02:37:50;;;;;;;19.52;13.18;;;;;;;;;;4968564;28;20050;-86
2023/06/06 02:40:16;;;;;;;17.35;12.70;;;;;;;;;;4986464;28;20457;-87
2023/06/06 02:42:42;;;;;;;21.33;15.88;;;;;;;;;;4986727;28;20050;-86
2023/06/06 02:45:09;;;;;;;24.25;17.52;;;;;;;;;;4987531;28;20066;-86
2023/06/06 02:47:36;;;;;;;24.95;18.73;;;;;;;;;;4973082;28;20051;-86
2023/06/06 02:50:03;;;;;;;26.42;19.60;;;;;;;;;;4986773;28;20043;-86
2023/06/06 02:52:31;;;;;;;26.98;21.10;;;;;;;;;;4986344;28;20043;-86
2023/06/06 02:54:57;;;;;;;27.63;21.42;;;;;;;;;;4983042;28;20047;-85
2023/06/06 02:57:24;;;;;;;26.90;22.83;;;;;;;;;;4981205;28;20046;-86
2023/06/06 02:59:51;;;;;;;29.08;22.42;;;;;;;;;;4984465;28;20085;-85
2023/06/06 03:02:17;;;;;;;30.67;22.70;;;;;;;;;;4985381;28;20096;-85
2023/06/06 03:04:44;;;;;;;28.63;22.98;;;;;;;;;;4976590;28;20063;-86
2023/06/06 03:07:11;;;;;;;30.77;23.88;;;;;;;;;;4969876;28;20054;-85
2023/06/06 03:09:37;;;;;;;32.17;24.33;;;;;;;;;;4984262;28;20043;-86
2023/06/06 03:12:04;;;;;;;31.80;24.05;;;;;;;;;;4985791;28;20465;-86
2023/06/06 03:14:30;;;;;;;33.10;24.05;;;;;;;;;;4985461;28;20246;-85
2023/06/06 03:16:56;;;;;;;34.72;24.02;;;;;;;;;;4985060;28;20070;-86
2023/06/06 03:19:24;;;;;;;30.58;22.83;;;;;;;;;;4984629;28;20054;-86
2023/06/06 03:21:51;;;;;;;29.00;22.83;;;;;;;;;;4985617;28;20047;-86
2023/06/06 03:24:18;;;;;;;29.67;22.95;;;;;;;;;;4985869;28;20077;-86
2023/06/06 03:26:46;;;;;;;27.95;20.73;;;;;;;;;;4982556;28;20385;-87
2023/06/06 03:29:12;;;;;;;30.00;21.80;;;;;;;;;;4983512;28;20054;-86
2023/06/06 03:31:42;;;;;;;28.83;20.17;;;;;;;;;;4951306;29;20055;-86
2023/06/06 03:34:08;;;;;;;30.08;20.58;;;;;;;;;;4967953;29;20063;-86
2023/06/06 03:36:35;;;;;;;27.10;18.85;;;;;;;;;;4982734;28;20058;-86
2023/06/06 03:39:01;;;;;;;29.88;18.48;;;;;;;;;;4988363;28;20046;-87
2023/06/06 03:41:27;;;;;;;24.80;16.58;;;;;;;;;;4996862;28;20098;-82
2023/06/06 03:43:54;;;;;;;28.65;17.17;;;;;;;;;;4994828;28;20045;-84
2023/06/06 03:46:20;;;;;;;31.35;17.48;;;;;;;;;;4974123;28;20074;-86
2023/06/06 03:48:46;;;;;;;25.55;16.95;;;;;;;;;;4969931;28;20047;-85
2023/06/06 03:51:12;;;;;;;27.45;15.60;;;;;;;;;;4968470;28;20106;-85
2023/06/06 03:53:38;;;;;;;24.90;15.77;;;;;;;;;;4985702;28;20053;-86
2023/06/06 03:56:05;;;;;;;27.83;16.08;;;;;;;;;;4986943;28;20450;-86
2023/06/06 03:58:31;;;;;;;24.17;14.40;;;;;;;;;;4984788;28;20070;-87
2023/06/06 04:01:01;;;;;;;24.02;15.27;;;;;;;;;;4986537;28;20068;-86
2023/06/06 04:03:27;;;;;;;23.27;14.82;;;;;;;;;;4986528;28;20059;-86
2023/06/06 04:05:53;;;;;;;26.23;14.68;;;;;;;;;;4968780;28;20074;-87
2023/06/06 04:08:20;;;;;;;24.35;13.50;;;;;;;;;;4986376;28;20050;-86
2023/06/06 04:10:46;;;;;;;25.92;13.02;;;;;;;;;;4975913;28;20043;-85
2023/06/06 04:13:12;;;;;;;21.70;13.05;;;;;;;;;;4986760;28;20042;-86
2023/06/06 04:15:38;;;;;;;19.48;12.40;;;;;;;;;;4986673;28;20066;-86
2023/06/06 04:18:05;;;;;;;21.67;11.38;;;;;;;;;;4969557;28;20047;-86
2023/06/06 04:20:34;;;;;;;19.38;11.07;;;;;;;;;;4986498;28;20047;-86
2023/06/06 04:23:00;;;;;;;20.70;10.45;;;;;;;;;;4985414;28;20043;-87
2023/06/06 04:25:26;;;;;;;18.00;9.80;;;;;;;;;;4966779;28;20047;-86
2023/06/06 04:27:52;;;;;;;16.95;9.15;;;;;;;;;;4969265;28;20098;-87
2023/06/06 04:30:24;;;;;;;18.40;8.50;;;;;;;;;;4971527;28;20058;-87
2023/06/06 04:32:53;;;;;;;12.98;8.35;;;;;;;;;;4991123;28;20065;-86
2023/06/06 04:35:19;;;;;;;16.45;8.30;;;;;;;;;;4972522;28;20074;-87
2023/06/06 04:37:48;;;;;;;15.55;8.10;;;;;;;;;;4987661;28;20043;-86
2023/06/06 04:40:15;;;;;;;14.50;7.93;;;;;;;;;;4954339;28;20055;-87
2023/06/06 04:42:41;;;;;;;14.68;8.10;;;;;;;;;;4985861;28;20046;-86
2023/06/06 04:45:08;;;;;;;12.98;7.80;;;;;;;;;;4975543;28;20054;-86
2023/06/06 04:47:37;;;;;;;15.55;7.60;;;;;;;;;;4971277;28;20049;-88
2023/06/06 04:50:04;;;;;;;13.60;7.53;;;;;;;;;;4970317;28;20078;-87
2023/06/06 04:52:30;;;;;;;15.05;7.35;;;;;;;;;;4970214;28;20074;-87
2023/06/06 04:54:56;;;;;;;15.07;8.05;;;;;;;;;;4956109;28;20038;-85
2023/06/06 04:57:23;;;;;;;16.13;7.90;;;;;;;;;;4990133;28;20046;-86
2023/06/06 04:59:52;;;;;;;18.75;7.90;;;;;;;;;;4955540;28;20046;-87
2023/06/06 05:02:22;;;;;;;17.63;8.20;;;;;;;;;;4987645;28;20042;-86
2023/06/06 05:04:54;;;;;;;18.23;7.63;;;;;;;;;;4989822;28;20039;-85
2023/06/06 05:07:24;;;;;;;16.60;7.10;;;;;;;;;;4989638;28;20050;-87
2023/06/06 05:09:50;;;;;;;16.08;7.18;;;;;;;;;;4973054;28;20093;-86
2023/06/06 05:12:16;;;;;;;16.98;8.05;;;;;;;;;;4996416;28;20046;-87
2023/06/06 05:14:42;;;;;;;17.02;7.63;;;;;;;;;;4972540;28;20042;-87
2023/06/06 05:17:09;;;;;;;19.80;7.53;;;;;;;;;;4988271;28;20035;-86
2023/06/06 05:19:35;;;;;;;18.40;7.22;;;;;;;;;;4992067;28;20058;-88
2023/06/06 05:22:02;;;;;;;18.40;7.88;;;;;;;;;;4991748;28;20038;-88
2023/06/06 05:24:28;;;;;;;16.92;6.97;;;;;;;;;;4974702;28;20051;-86
2023/06/06 05:26:54;;;;;;;17.10;6.90;;;;;;;;;;4992939;28;20087;-88
2023/06/06 05:29:22;;;;;;;15.80;7.47;;;;;;;;;;4974852;28;20055;-88
2023/06/06 05:31:48;;;;;;;14.95;6.47;;;;;;;;;;4990737;28;20425;-88
2023/06/06 05:34:14;;;;;;;15.63;6.75;;;;;;;;;;4991139;28;20425;-88
2023/06/06 05:36:42;;;;;;;15.32;6.35;;;;;;;;;;4992602;28;20047;-88
2023/06/06 05:39:08;;;;;;;15.65;5.93;;;;;;;;;;4975969;28;20055;-89
2023/06/06 05:41:37;;;;;;;15.02;6.10;;;;;;;;;;4977159;28;20105;-88
2023/06/06 05:44:03;;;;;;;13.00;5.53;;;;;;;;;;4970497;29;20053;-89
2023/06/06 05:46:29;;;;;;;13.43;5.70;;;;;;;;;;4963191;28;20062;-89
2023/06/06 05:48:55;;;;;;;17.80;6.18;;;;;;;;;;4992357;28;20043;-89
2023/06/06 05:51:21;;;;;;;11.88;5.30;;;;;;;;;;4999842;28;20106;-91
2023/06/06 05:53:47;;;;;;;14.57;5.35;;;;;;;;;;4993780;28;20054;-87
2023/06/06 05:56:14;;;;;;;13.02;5.13;;;;;;;;;;4993071;28;20043;-89
2023/06/06 05:58:47;;;;;;;14.88;5.35;;;;;;;;;;4987865;28;20051;-88
2023/06/06 06:01:13;;;;;;;12.65;4.93;;;;;;;;;;4993732;28;20060;-88
2023/06/06 06:03:40;;;;;;;16.55;5.40;;;;;;;;;;4991985;28;20063;-87
2023/06/06 06:06:08;;;;;;;16.02;5.28;;;;;;;;;;4962705;28;20494;-85
2023/06/06 06:08:35;;;;;;;13.68;5.03;;;;;;;;;;5005836;28;20050;-88
2023/06/06 06:11:01;;;;;;;12.43;5.20;;;;;;;;;;4979509;28;20042;-85
2023/06/06 06:13:27;;;;;;;12.15;4.90;;;;;;;;;;4992037;28;20086;-88
2023/06/06 06:15:53;;;;;;;13.38;5.03;;;;;;;;;;4975460;28;20046;-90
2023/06/06 06:18:19;;;;;;;12.48;4.95;;;;;;;;;;4975692;28;20051;-90
2023/06/06 06:20:46;;;;;;;10.98;4.68;;;;;;;;;;4976951;28;20389;-89
2023/06/06 06:23:12;;;;;;;17.00;5.05;;;;;;;;;;4979531;28;20041;-90
2023/06/06 06:25:38;;;;;;;10.52;5.30;;;;;;;;;;4976448;28;20051;-87
2023/06/06 06:28:04;;;;;;;12.38;4.63;;;;;;;;;;4990983;28;20039;-88
2023/06/06 06:30:33;;;;;;;12.73;4.97;;;;;;;;;;4994166;28;20083;-89
2023/06/06 06:33:00;;;;;;;17.73;5.75;;;;;;;;;;4989726;28;20049;-88
2023/06/06 06:35:26;;;;;;;14.90;5.10;;;;;;;;;;4973328;28;20043;-89
2023/06/06 06:37:52;;;;;;;12.25;4.60;;;;;;;;;;4995139;28;20043;-87
2023/06/06 06:40:19;;;;;;;12.00;5.07;;;;;;;;;;4991156;28;20035;-89
2023/06/06 06:42:45;;;;;;;13.65;5.30;;;;;;;;;;4980435;28;20046;-88
2023/06/06 06:45:12;;;;;;;12.52;5.00;;;;;;;;;;4995640;28;20070;-89
2023/06/06 06:47:39;;;;;;;13.18;4.80;;;;;;;;;;4992076;28;20038;-89
2023/06/06 06:50:05;;;;;;;16.85;5.13;;;;;;;;;;4988062;28;20039;-89
2023/06/06 06:52:35;;;;;;;11.07;4.80;;;;;;;;;;4990856;28;20039;-89
2023/06/06 06:55:01;;;;;;;11.52;4.90;;;;;;;;;;4989876;28;20046;-88
2023/06/06 06:57:28;;;;;;;11.48;4.88;;;;;;;;;;4986263;28;20057;-88
2023/06/06 06:59:58;;;;;;;14.90;4.60;;;;;;;;;;4973794;28;20121;-90
2023/06/06 07:02:26;;;;;;;18.27;4.80;;;;;;;;;;4990743;28;20147;-85
2023/06/06 07:04:57;;;;;;;12.02;4.10;;;;;;;;;;4971793;28;20059;-88
2023/06/06 07:07:23;;;;;;;10.27;4.38;;;;;;;;;;4992111;28;20073;-88
2023/06/06 07:09:50;;;;;;;12.13;4.35;;;;;;;;;;4985367;28;20074;-91
2023/06/06 07:12:16;;;;;;;12.38;4.50;;;;;;;;;;4981712;28;20047;-89
2023/06/06 07:14:42;;;;;;;11.88;4.40;;;;;;;;;;4990002;28;20047;-89
2023/06/06 07:17:08;;;;;;;11.43;4.63;;;;;;;;;;4990310;28;20421;-89
2023/06/06 07:19:35;;;;;;;10.27;4.38;;;;;;;;;;4990279;28;20047;-88
2023/06/06 07:22:02;;;;;;;10.18;4.25;;;;;;;;;;4991333;28;20038;-89
2023/06/06 07:24:29;;;;;;;9.32;4.00;;;;;;;;;;4988688;28;20042;-87
2023/06/06 07:26:55;;;;;;;11.18;4.40;;;;;;;;;;4990159;28;20051;-90
2023/06/06 07:29:21;;;;;;;9.82;4.30;;;;;;;;;;4987192;28;20046;-87
2023/06/06 07:31:48;;;;;;;14.45;4.70;;;;;;;;;;4987346;28;20061;-89
2023/06/06 07:34:14;;;;;;;14.35;4.90;;;;;;;;;;4987501;28;20050;-90
2023/06/06 07:36:40;;;;;;;10.38;4.15;;;;;;;;;;4985020;28;20074;-90
2023/06/06 07:39:06;;;;;;;12.00;4.63;;;;;;;;;;4972475;28;20111;-88
2023/06/06 07:41:33;;;;;;;11.40;4.60;;;;;;;;;;4990348;28;20102;-88
2023/06/06 07:44:00;;;;;;;12.50;4.75;;;;;;;;;;4983263;28;20050;-86
2023/06/06 07:46:26;;;;;;;10.55;4.30;;;;;;;;;;4988563;28;20108;-88
2023/06/06 07:48:53;;;;;;;11.13;4.10;;;;;;;;;;4987855;28;20051;-89
2023/06/06 07:51:19;;;;;;;10.65;4.47;;;;;;;;;;4991550;28;20049;-87
2023/06/06 07:53:46;;;;;;;11.48;4.15;;;;;;;;;;4971080;28;20047;-89
2023/06/06 07:56:20;;;;;;;8.43;3.72;;;;;;;;;;4981847;28;20110;-88
2023/06/06 07:58:52;;;;;;;9.80;4.55;;;;;;;;;;4994647;28;20086;-87
2023/06/06 08:01:21;;;;;;;11.27;4.82;;;;;;;;;;4995184;28;20047;-87
2023/06/06 08:03:51;;;;;;;12.88;5.30;;;;;;;;;;4969610;28;20634;-89
2023/06/06 08:06:20;;;;;;;11.85;4.60;;;;;;;;;;4989028;28;20077;-89
2023/06/06 08:08:48;;;;;;;10.90;4.88;;;;;;;;;;4999526;28;20046;-89
2023/06/06 08:11:14;;;;;;;10.13;4.68;;;;;;;;;;5009031;28;20050;-89
2023/06/06 08:13:41;;;;;;;14.18;5.25;;;;;;;;;;4990528;28;20465;-89
2023/06/06 08:16:09;;;;;;;9.70;4.07;;;;;;;;;;4990512;28;20078;-89
2023/06/06 08:18:36;;;;;;;12.68;4.60;;;;;;;;;;4973057;28;20050;-89
2023/06/06 08:21:02;;;;;;;9.85;4.55;;;;;;;;;;4990204;28;20049;-89
2023/06/06 08:23:28;;;;;;;11.48;4.55;;;;;;;;;;4990752;28;20097;-90
2023/06/06 08:25:55;;;;;;;8.07;4.07;;;;;;;;;;4981288;28;20043;-89
2023/06/06 08:28:28;;;;;;;10.65;4.40;;;;;;;;;;4985495;28;20135;-89
2023/06/06 08:30:54;;;;;;;13.00;5.22;;;;;;;;;;4988287;28;20047;-89
2023/06/06 08:33:20;;;;;;;12.10;4.72;;;;;;;;;;4987817;28;20047;-89
2023/06/06 08:35:47;;;;;;;8.55;4.63;;;;;;;;;;4989470;28;20073;-88
2023/06/06 08:38:13;;;;;;;9.75;4.57;;;;;;;;;;4989166;28;20334;-89
2023/06/06 08:40:39;;;;;;;10.63;5.15;;;;;;;;;;4987122;28;20054;-89
2023/06/06 08:43:12;;;;;;;11.77;5.00;;;;;;;;;;4996516;28;20044;-89
2023/06/06 08:45:43;;;;;;;10.35;4.90;;;;;;;;;;5001817;28;20340;-89
2023/06/06 08:48:10;;;;;;;9.95;4.38;;;;;;;;;;4996532;28;20059;-89
2023/06/06 08:50:38;;;;;;;13.63;4.95;;;;;;;;;;4997463;28;20047;-87
2023/06/06 08:53:06;;;;;;;10.10;5.00;;;;;;;;;;4994125;28;20043;-87
2023/06/06 08:55:37;;;;;;;10.32;5.13;;;;;;;;;;4999924;28;20051;-87
2023/06/06 08:58:03;;;;;;;13.27;4.97;;;;;;;;;;4995806;28;20516;-86
2023/06/06 09:00:32;;;;;;;12.02;5.20;;;;;;;;;;4996146;28;20046;-86
2023/06/06 09:02:59;;;;;;;12.02;4.97;;;;;;;;;;4996608;28;20181;-86
2023/06/06 09:05:28;;;;;;;10.88;5.15;;;;;;;;;;4997990;28;20042;-86
2023/06/06 09:07:54;;;;;;;12.63;5.00;;;;;;;;;;4979172;28;20054;-85
2023/06/06 09:10:20;;;;;;;12.75;5.35;;;;;;;;;;4992098;28;20052;-85
2023/06/06 09:12:47;;;;;;;11.63;5.18;;;;;;;;;;5002965;28;20042;-86
2023/06/06 09:15:13;;;;;;;11.15;5.15;;;;;;;;;;4990184;28;20076;-85
2023/06/06 09:17:47;;;;;;;12.77;5.72;;;;;;;;;;4994009;28;20100;-85
2023/06/06 09:20:16;;;;;;;11.18;4.97;;;;;;;;;;4996146;28;20497;-86
2023/06/06 09:22:43;;;;;;;12.45;4.95;;;;;;;;;;4984350;28;20045;-84
2023/06/06 09:25:25;;;;;;;10.35;5.18;;;;;;;;;;4991753;28;20038;-81
2023/06/06 09:28:18;;;;;;;12.10;5.00;;;;;;;;;;4990334;28;20047;-85
2023/06/06 09:30:44;;;;;;;11.00;5.88;;;;;;;;;;4987766;28;20099;-85
2023/06/06 09:33:10;;;;;;;12.93;5.68;;;;;;;;;;4996398;28;20038;-86
2023/06/06 09:35:43;;;;;;;13.75;6.10;;;;;;;;;;4992550;28;20043;-84
2023/06/06 09:38:16;;;;;;;11.30;5.43;;;;;;;;;;4992548;28;20085;-85
2023/06/06 09:40:45;;;;;;;12.95;5.78;;;;;;;;;;4992054;28;20051;-85
2023/06/06 09:43:12;;;;;;;12.18;5.20;;;;;;;;;;4974797;28;20485;-87
2023/06/06 09:45:50;;;;;;;12.73;5.50;;;;;;;;;;4976266;28;20042;-87
2023/06/06 09:48:20;;;;;;;12.15;5.82;;;;;;;;;;4993778;28;20042;-86
2023/06/06 09:50:47;;;;;;;14.53;5.90;;;;;;;;;;4995190;28;20042;-87
2023/06/06 09:53:13;;;;;;;13.00;6.05;;;;;;;;;;4993886;28;20322;-88
2023/06/06 09:55:39;;;;;;;15.15;5.57;;;;;;;;;;4987507;28;20043;-87
2023/06/06 09:58:07;;;;;;;11.52;5.80;;;;;;;;;;4986222;28;20107;-87
2023/06/06 10:00:37;;;;;;;10.85;5.07;;;;;;;;;;4990078;28;20062;-87
2023/06/06 10:03:06;;;;;;;12.07;5.45;;;;;;;;;;4991700;28;20063;-87
2023/06/06 10:05:37;;;;;;;11.82;5.53;;;;;;;;;;4991791;28;20081;-88
2023/06/06 10:08:03;;;;;;;12.70;6.28;;;;;;;;;;4974888;28;20125;-87
2023/06/06 10:10:33;;;;;;;13.23;5.75;;;;;;;;;;4991509;28;20082;-88
2023/06/06 10:13:02;;;;;;;13.35;5.93;;;;;;;;;;4963206;28;20047;-87
2023/06/06 10:15:28;;;;;;;15.80;6.35;;;;;;;;;;4988993;28;20039;-86
2023/06/06 10:17:54;;;;;;;12.88;6.22;;;;;;;;;;4973624;28;20058;-87
2023/06/06 10:20:22;;;;;;;12.32;6.18;;;;;;;;;;4993185;28;20078;-86
2023/06/06 10:22:48;;;;;;;11.73;5.40;;;;;;;;;;4990264;28;20047;-88
2023/06/06 10:25:18;;;;;;;12.70;5.70;;;;;;;;;;4980633;28;20039;-87
2023/06/06 10:28:03;;;;;;;12.60;5.97;;;;;;;;;;4967129;28;20047;-87
2023/06/06 10:30:34;;;;;;;14.35;5.93;;;;;;;;;;4969276;28;20072;-87
2023/06/06 10:33:01;;;;;;;10.88;5.60;;;;;;;;;;4957478;28;20078;-87
2023/06/06 10:35:32;;;;;;;10.40;4.85;;;;;;;;;;4956055;28;20154;-86
2023/06/06 10:38:05;;;;;;;9.95;4.93;;;;;;;;;;4989638;28;20074;-87
2023/06/06 10:40:50;;;;;;;10.90;5.13;;;;;;;;;;4988496;28;20047;-87
2023/06/06 10:43:19;;;;;;;12.68;5.57;;;;;;;;;;4971887;28;20047;-86
2023/06/06 10:45:45;;;;;;;10.93;5.50;;;;;;;;;;4990320;28;20050;-85
2023/06/06 10:48:15;;;;;;;11.43;5.38;;;;;;;;;;4972465;28;20047;-86
2023/06/06 10:50:53;;;;;;;11.88;5.28;;;;;;;;;;4954991;28;20066;-85
2023/06/06 10:53:20;;;;;;;10.57;4.63;;;;;;;;;;4963925;28;20093;-86
2023/06/06 10:55:46;;;;;;;9.15;4.60;;;;;;;;;;4956138;28;20457;-86
2023/06/06 10:58:18;;;;;;;10.75;5.28;;;;;;;;;;4989278;28;20042;-87
2023/06/06 11:00:45;;;;;;;11.25;4.80;;;;;;;;;;4990578;28;20047;-85
2023/06/06 11:03:13;;;;;;;12.70;5.28;;;;;;;;;;4989188;28;20055;-85
2023/06/06 11:05:58;;;;;;;10.98;4.75;;;;;;;;;;4954561;28;20098;-87
2023/06/06 11:08:38;;;;;;;11.77;4.97;;;;;;;;;;4957835;28;20046;-86
2023/06/06 11:11:21;;;;;;;13.52;6.03;;;;;;;;;;4982359;28;20110;-87
2023/06/06 11:13:57;;;;;;;12.52;6.13;;;;;;;;;;4992712;28;20062;-85
2023/06/06 11:16:38;;;;;;;14.30;5.53;;;;;;;;;;4990210;28;20147;-86
2023/06/06 11:19:04;;;;;;;;;;;;;;;;;;4990056;28;20102;-85
2023/06/06 11:21:34;;;;;;;13.52;5.53;;;;;;;;;;4959492;28;19922;-85
2023/06/06 11:24:00;;;;;;;9.52;4.90;;;;;;;;;;4953609;28;20050;-84
2023/06/06 11:26:27;;;;;;;10.35;5.38;;;;;;;;;;4979792;28;20380;-85
2023/06/06 11:28:55;;;;;;;12.57;5.82;;;;;;;;;;4987267;28;20066;-85
2023/06/06 11:31:23;;;;;;;16.02;6.38;;;;;;;;;;4987182;28;20054;-86
2023/06/06 11:33:50;;;;;;;12.50;5.35;;;;;;;;;;4987204;28;20054;-85
2023/06/06 11:36:16;;;;;;;10.68;5.45;;;;;;;;;;4987616;28;20047;-85
2023/06/06 11:38:42;;;;;;;11.07;5.78;;;;;;;;;;4980685;28;20039;-85
2023/06/06 11:41:09;;;;;;;12.52;5.97;;;;;;;;;;4985665;28;20065;-85
2023/06/06 11:43:35;;;;;;;10.63;6.05;;;;;;;;;;4986425;28;20054;-86
2023/06/06 11:46:05;;;;;;;9.82;5.63;;;;;;;;;;4970223;28;20054;-86
2023/06/06 11:48:31;;;;;;;11.55;6.15;;;;;;;;;;4953812;28;20042;-85
2023/06/06 11:50:57;;;;;;;15.63;5.82;;;;;;;;;;4972488;28;20058;-85
2023/06/06 11:53:30;;;;;;;12.82;5.93;;;;;;;;;;4970400;28;20441;-85
2023/06/06 11:55:57;;;;;;;13.43;6.28;;;;;;;;;;4964335;28;20054;-86
2023/06/06 11:58:24;;;;;;;15.85;5.97;;;;;;;;;;4968753;28;20046;-85
2023/06/06 12:00:56;;;;;;;12.90;5.38;;;;;;;;;;4977859;28;20035;-83
2023/06/06 12:03:23;;;;;;;13.57;5.78;;;;;;;;;;4998969;28;20109;-86
2023/06/06 12:06:02;;;;;;;11.65;5.35;;;;;;;;;;4980870;28;20051;-85
2023/06/06 12:08:28;;;;;;;9.52;4.97;;;;;;;;;;4988621;28;20437;-85
2023/06/06 12:10:54;;;;;;;10.80;5.85;;;;;;;;;;4984518;28;20530;-87
2023/06/06 12:13:36;;;;;;;10.52;5.38;;;;;;;;;;4983342;28;20092;-87
2023/06/06 12:16:02;;;;;;;13.93;5.50;;;;;;;;;;4978922;28;20094;-86
2023/06/06 12:18:28;;;;;;;13.63;5.68;;;;;;;;;;4975743;28;20136;-87
2023/06/06 12:20:55;;;;;;;12.80;5.57;;;;;;;;;;4968259;28;20053;-87
2023/06/06 12:23:31;;;;;;;10.95;5.63;;;;;;;;;;4972418;28;20078;-86
2023/06/06 12:25:57;;;;;;;14.25;5.63;;;;;;;;;;4984389;28;20046;-83
2023/06/06 12:28:24;;;;;;;14.38;6.10;;;;;;;;;;4968622;28;20070;-86
2023/06/06 12:30:54;;;;;;;12.02;5.90;;;;;;;;;;4965118;28;20057;-86
2023/06/06 12:33:21;;;;;;;11.02;5.35;;;;;;;;;;4984628;28;20077;-87
2023/06/06 12:35:48;;;;;;;13.52;6.35;;;;;;;;;;4987151;28;20122;-89
2023/06/06 12:38:23;;;;;;;13.90;5.70;;;;;;;;;;4972733;28;20058;-87
2023/06/06 12:40:56;;;;;;;16.45;6.07;;;;;;;;;;4987296;28;20480;-88
2023/06/06 12:43:22;;;;;;;14.35;5.78;;;;;;;;;;4969824;28;20122;-88
2023/06/06 12:45:48;;;;;;;16.08;5.80;;;;;;;;;;4986897;28;20049;-87
2023/06/06 12:48:15;;;;;;;12.13;5.72;;;;;;;;;;4980220;28;20105;-87
2023/06/06 12:50:43;;;;;;;10.35;5.43;;;;;;;;;;4985825;28;20055;-87
2023/06/06 12:53:12;;;;;;;13.15;5.88;;;;;;;;;;4969579;28;20105;-87
2023/06/06 12:55:38;;;;;;;12.80;5.93;;;;;;;;;;4998731;28;20070;-88
2023/06/06 12:58:05;;;;;;;12.13;6.32;;;;;;;;;;4983825;28;20070;-88
2023/06/06 13:00:31;;;;;;;12.70;5.47;;;;;;;;;;4972645;28;20038;-87
2023/06/06 13:02:58;;;;;;;11.45;5.38;;;;;;;;;;4991452;28;20062;-87
2023/06/06 13:05:24;;;;;;;10.52;5.47;;;;;;;;;;4988081;28;20078;-87
2023/06/06 13:07:51;;;;;;;11.68;5.28;;;;;;;;;;4987195;28;20123;-87
2023/06/06 13:10:17;;;;;;;13.02;5.18;;;;;;;;;;4968063;28;20078;-86
2023/06/06 13:12:43;;;;;;;14.23;6.47;;;;;;;;;;4957996;28;20090;-88
2023/06/06 13:15:10;;;;;;;13.18;5.30;;;;;;;;;;4970604;28;20493;-88
2023/06/06 13:17:40;;;;;;;14.25;5.60;;;;;;;;;;4950092;28;20202;-85
2023/06/06 13:20:06;;;;;;;14.23;5.70;;;;;;;;;;4984743;28;20050;-85
2023/06/06 13:22:32;;;;;;;11.70;5.93;;;;;;;;;;4985716;28;20042;-85
2023/06/06 13:24:58;;;;;;;11.70;5.32;;;;;;;;;;4991033;28;20035;-85
2023/06/06 13:27:25;;;;;;;15.75;5.82;;;;;;;;;;4983196;28;20069;-84
2023/06/06 13:29:51;;;;;;;12.55;5.93;;;;;;;;;;4978331;28;20085;-85
2023/06/06 13:32:18;;;;;;;12.23;5.72;;;;;;;;;;4970057;28;20050;-84
2023/06/06 13:34:44;;;;;;;11.93;5.50;;;;;;;;;;4951837;29;20111;-85
2023/06/06 13:37:10;;;;;;;13.15;5.65;;;;;;;;;;4958176;28;20094;-83
2023/06/06 13:39:36;;;;;;;14.35;6.03;;;;;;;;;;4971848;28;20488;-85
2023/06/06 13:42:02;;;;;;;12.93;5.07;;;;;;;;;;4971589;28;20053;-85
2023/06/06 13:44:28;;;;;;;15.82;6.10;;;;;;;;;;4983078;28;20050;-84
2023/06/06 13:46:54;;;;;;;14.75;5.78;;;;;;;;;;4994276;28;20043;-85
2023/06/06 13:49:21;;;;;;;12.48;5.25;;;;;;;;;;4967671;28;20047;-86
2023/06/06 13:51:47;;;;;;;15.68;6.35;;;;;;;;;;4974870;28;20059;-86
2023/06/06 13:54:14;;;;;;;13.10;5.35;;;;;;;;;;4990283;28;20066;-86
2023/06/06 13:56:40;;;;;;;12.30;5.47;;;;;;;;;;4959117;29;20051;-84
2023/06/06 13:59:06;;;;;;;12.45;5.35;;;;;;;;;;4986140;28;20043;-84
2023/06/06 14:01:36;;;;;;;15.68;5.72;;;;;;;;;;4993227;28;20046;-89
2023/06/06 14:04:02;;;;;;;13.55;5.47;;;;;;;;;;4997297;28;20050;-85
2023/06/06 14:06:28;;;;;;;12.60;6.05;;;;;;;;;;4975069;28;20137;-86
2023/06/06 14:08:54;;;;;;;13.60;5.57;;;;;;;;;;4970845;28;20046;-89
2023/06/06 14:11:21;;;;;;;12.20;4.97;;;;;;;;;;4974331;28;20050;-83
2023/06/06 14:13:47;;;;;;;14.20;5.20;;;;;;;;;;4990622;28;20042;-86
2023/06/06 14:16:15;;;;;;;15.95;5.25;;;;;;;;;;4973118;28;20073;-85
2023/06/06 14:18:46;;;;;;;16.75;5.70;;;;;;;;;;4970151;28;20102;-86
2023/06/06 14:23:44;;;;;;;13.30;5.80;;;;;;;;;;4987474;28;20061;-85
2023/06/06 14:26:11;;;;;;;14.77;5.60;;;;;;;;;;4990616;28;20054;-87
2023/06/06 14:28:38;;;;;;;11.68;5.70;;;;;;;;;;4958002;28;20049;-85
2023/06/06 14:31:04;;;;;;;15.30;5.10;;;;;;;;;;4956270;28;20089;-84
2023/06/06 14:33:30;;;;;;;14.10;5.35;;;;;;;;;;4972647;28;20135;-85